Time;durP1;ratioP1;P1;durP2;ratioP2;P2;SDS_P1;SDS_P2;PMS_P1;PMS_P2;Temp;Humidity;BMP_temperature;BMP_pressure;BME280_temperature;BME280_humidity;BME280_pressure;Samples;Min_cycle;Max_cycle;Signal;HPM_P1;HPM_P2
2022/10/28 00:01:54;;;;;;;;;;;17.00;99.90;;;;;;12538851;28;19948;-39
2022/10/28 00:07:56;;;;;;;;;;;17.00;99.90;;;;;;12552238;28;19929;-39
2022/10/28 00:13:59;;;;;;;;;;;17.00;99.90;;;;;;12556863;28;19936;-38
2022/10/28 00:20:01;;;;;;;;;;;16.90;99.90;;;;;;12533571;28;20380;-38
2022/10/28 00:26:11;;;;;;;;;;;16.70;99.90;;;;;;12551645;28;19976;-39
2022/10/28 00:32:12;;;;;;;;;;;16.60;99.90;;;;;;12549117;28;19935;-39
2022/10/28 00:38:14;;;;;;;;;;;16.60;99.90;;;;;;12558328;28;19925;-38
2022/10/28 00:44:34;;;;;;;;;;;16.30;99.90;;;;;;12560888;28;20339;-39
2022/10/28 00:50:47;;;;;;;;;;;16.10;99.90;;;;;;12559041;28;19932;-38
2022/10/28 00:56:51;;;;;;;;;;;16.00;99.90;;;;;;12559194;28;19935;-39
2022/10/28 01:02:54;;;;;;;;;;;16.00;99.90;;;;;;12548865;28;19925;-39
2022/10/28 01:08:55;;;;;;;;;;;16.00;99.90;;;;;;12555879;28;19929;-39
2022/10/28 01:15:18;;;;;;;;;;;15.90;99.90;;;;;;12538322;28;19932;-39
2022/10/28 01:21:39;;;;;;;;;;;16.00;99.90;;;;;;12554175;28;20388;-38
2022/10/28 01:27:58;;;;;;;;;;;16.30;99.90;;;;;;12551054;28;19928;-39
2022/10/28 01:34:18;;;;;;;;;;;16.60;99.90;;;;;;12550379;28;19928;-38
2022/10/28 01:40:46;;;;;;;;;;;16.70;99.90;;;;;;12562532;28;19947;-39
2022/10/28 01:46:57;;;;;;;;;;;16.80;99.90;;;;;;12526494;28;19929;-38
2022/10/28 01:53:01;;;;;;;;;;;16.80;99.90;;;;;;12553483;28;19936;-38
2022/10/28 01:59:04;;;;;;;;;;;16.80;99.90;;;;;;12562375;28;19924;-39
2022/10/28 02:05:26;;;;;;;;;;;16.90;99.90;;;;;;12555809;28;19928;-38
2022/10/28 02:11:47;;;;;;;;;;;16.90;99.90;;;;;;12541607;28;19929;-38
2022/10/28 02:18:05;;;;;;;;;;;16.60;99.90;;;;;;12551147;28;19935;-38
2022/10/28 02:24:16;;;;;;;;;;;16.30;99.90;;;;;;12545925;28;20373;-38
2022/10/28 02:30:20;;;;;;;;;;;16.40;99.90;;;;;;12537460;28;19925;-38
2022/10/28 02:36:24;;;;;;;;;;;16.50;99.90;;;;;;12554192;28;19931;-38
2022/10/28 02:42:27;;;;;;;;;;;16.40;99.90;;;;;;12534029;28;19937;-39
2022/10/28 02:48:44;;;;;;;;;;;16.10;99.90;;;;;;12549646;28;20363;-38
2022/10/28 02:54:50;;;;;;;;;;;15.90;99.90;;;;;;12550358;28;20338;-38
2022/10/28 03:00:52;;;;;;;;;;;15.80;99.90;;;;;;12552102;28;19924;-38
2022/10/28 03:06:53;;;;;;;;;;;15.70;99.90;;;;;;12553963;28;20384;-39
2022/10/28 03:12:55;;;;;;;;;;;15.70;99.90;;;;;;12534004;28;20266;-38
2022/10/28 03:18:57;;;;;;;;;;;15.80;99.90;;;;;;12555648;28;19929;-39
2022/10/28 03:24:59;;;;;;;;;;;15.40;99.90;;;;;;12558268;28;19939;-40
2022/10/28 03:31:00;;;;;;;;;;;15.20;99.90;;;;;;12551246;28;19936;-39
2022/10/28 03:37:02;;;;;;;;;;;15.10;99.90;;;;;;12554934;28;19928;-39
2022/10/28 03:43:04;;;;;;;;;;;15.10;99.90;;;;;;12547023;28;19936;-38
2022/10/28 03:49:05;;;;;;;;;;;15.10;99.90;;;;;;12537314;28;20308;-38
2022/10/28 03:55:07;;;;;;;;;;;15.00;99.90;;;;;;12543940;28;19925;-38
2022/10/28 04:01:09;;;;;;;;;;;15.00;99.90;;;;;;12542184;28;19929;-39
2022/10/28 04:07:11;;;;;;;;;;;15.70;99.90;;;;;;12545885;28;20043;-38
2022/10/28 04:13:12;;;;;;;;;;;16.10;99.90;;;;;;12539222;28;19950;-38
2022/10/28 04:19:14;;;;;;;;;;;16.60;99.90;;;;;;12548997;28;19931;-38
2022/10/28 04:25:16;;;;;;;;;;;16.80;99.90;;;;;;12539064;28;19928;-38
2022/10/28 04:31:18;;;;;;;;;;;16.60;99.90;;;;;;12541867;28;19928;-39
2022/10/28 04:37:20;;;;;;;;;;;16.90;99.90;;;;;;12544789;28;19932;-39
2022/10/28 04:43:21;;;;;;;;;;;17.00;99.90;;;;;;12548667;28;19947;-39
2022/10/28 04:49:23;;;;;;;;;;;17.10;99.90;;;;;;12543460;28;19925;-39
2022/10/28 04:55:25;;;;;;;;;;;17.00;99.90;;;;;;12551966;28;20019;-38
2022/10/28 05:01:26;;;;;;;;;;;17.00;99.90;;;;;;12548429;28;19928;-38
2022/10/28 05:07:28;;;;;;;;;;;16.90;99.90;;;;;;12539790;28;20687;-38
2022/10/28 05:13:30;;;;;;;;;;;16.60;99.90;;;;;;12561537;28;19928;-39
2022/10/28 05:19:32;;;;;;;;;;;16.20;99.90;;;;;;12556818;28;19924;-39
2022/10/28 05:25:33;;;;;;;;;;;16.10;99.90;;;;;;12557171;28;20285;-39
2022/10/28 05:31:35;;;;;;;;;;;16.40;99.90;;;;;;12551610;28;19963;-38
2022/10/28 05:37:37;;;;;;;;;;;16.50;99.90;;;;;;12545263;28;19932;-39
2022/10/28 05:43:39;;;;;;;;;;;16.60;99.90;;;;;;12560706;28;19925;-39
2022/10/28 05:49:40;;;;;;;;;;;16.80;99.90;;;;;;12549156;28;19925;-39
2022/10/28 05:55:42;;;;;;;;;;;16.90;99.90;;;;;;12557300;28;21739;-38
2022/10/28 06:01:48;;;;;;;;;;;17.00;99.90;;;;;;12557770;28;19929;-39
2022/10/28 06:07:50;;;;;;;;;;;17.10;99.90;;;;;;12555536;28;19936;-38
2022/10/28 06:13:51;;;;;;;;;;;17.10;99.90;;;;;;12554162;28;20015;-38
2022/10/28 06:19:54;;;;;;;;;;;17.10;99.90;;;;;;12547593;28;19928;-38
2022/10/28 06:25:56;;;;;;;;;;;17.10;99.90;;;;;;12539883;28;20185;-38
2022/10/28 06:31:59;;;;;;;;;;;17.10;99.90;;;;;;12532402;28;19931;-38
2022/10/28 06:38:01;;;;;;;;;;;17.10;99.90;;;;;;12544283;28;20278;-38
2022/10/28 06:44:06;;;;;;;;;;;17.10;99.90;;;;;;12540252;28;19940;-38
2022/10/28 06:50:08;;;;;;;;;;;17.00;99.90;;;;;;12552687;28;19931;-38
2022/10/28 06:56:10;;;;;;;;;;;16.90;99.90;;;;;;12544862;28;19924;-38
2022/10/28 07:02:12;;;;;;;;;;;16.90;99.90;;;;;;12547030;28;19928;-39
2022/10/28 07:08:14;;;;;;;;;;;17.10;99.90;;;;;;12562829;28;19925;-39
2022/10/28 07:14:16;;;;;;;;;;;17.20;99.90;;;;;;12546207;28;19974;-39
2022/10/28 07:20:17;;;;;;;;;;;17.20;99.90;;;;;;12550266;28;19924;-38
2022/10/28 07:26:19;;;;;;;;;;;17.30;99.90;;;;;;12540824;28;19932;-38
2022/10/28 07:32:21;;;;;;;;;;;17.50;99.90;;;;;;12560009;28;19931;-38
2022/10/28 07:38:23;;;;;;;;;;;17.60;99.90;;;;;;12538848;28;19935;-39
2022/10/28 07:44:24;;;;;;;;;;;17.60;99.90;;;;;;12550102;28;20015;-39
2022/10/28 07:50:26;;;;;;;;;;;17.70;99.90;;;;;;12555922;28;19932;-38
2022/10/28 07:56:28;;;;;;;;;;;17.60;99.90;;;;;;12562707;28;19928;-39
2022/10/28 08:02:30;;;;;;;;;;;17.80;99.90;;;;;;12537852;28;19925;-38
2022/10/28 08:08:31;;;;;;;;;;;18.00;99.90;;;;;;12550451;28;19925;-39
2022/10/28 08:14:33;;;;;;;;;;;18.30;99.90;;;;;;12550395;28;20423;-39
2022/10/28 08:20:35;;;;;;;;;;;18.50;99.90;;;;;;12551175;28;19948;-38
2022/10/28 08:26:37;;;;;;;;;;;18.70;99.90;;;;;;12562261;28;19936;-39
2022/10/28 08:32:38;;;;;;;;;;;18.90;99.90;;;;;;12546207;28;19925;-38
2022/10/28 08:38:44;;;;;;;;;;;19.10;99.90;;;;;;12551148;28;20289;-39
2022/10/28 08:45:01;;;;;;;;;;;19.30;99.90;;;;;;12552150;28;20409;-39
2022/10/28 08:51:20;;;;;;;;;;;19.40;99.90;;;;;;12553558;28;20322;-39
2022/10/28 08:57:31;;;;;;;;;;;19.50;99.90;;;;;;12560606;28;20049;-39
2022/10/28 09:03:37;;;;;;;;;;;19.60;99.90;;;;;;12553250;28;19982;-38
2022/10/28 09:09:39;;;;;;;;;;;19.70;99.90;;;;;;12560341;28;19924;-38
2022/10/28 09:15:47;;;;;;;;;;;19.80;99.90;;;;;;12560648;28;19924;-38
2022/10/28 09:21:51;;;;;;;;;;;19.90;99.90;;;;;;12545541;28;19924;-38
2022/10/28 09:27:59;;;;;;;;;;;20.00;99.90;;;;;;12552783;28;19931;-38
2022/10/28 09:34:16;;;;;;;;;;;20.10;99.90;;;;;;12545055;28;19925;-38
2022/10/28 09:40:20;;;;;;;;;;;20.10;99.90;;;;;;12547396;28;19929;-38
2022/10/28 09:46:24;;;;;;;;;;;20.30;99.90;;;;;;12562449;28;19924;-39
2022/10/28 09:52:37;;;;;;;;;;;20.50;99.90;;;;;;12552756;28;19928;-39
2022/10/28 09:58:41;;;;;;;;;;;20.60;99.90;;;;;;12551098;28;19977;-38
2022/10/28 10:04:43;;;;;;;;;;;20.80;99.90;;;;;;12541999;28;20352;-38
2022/10/28 10:10:44;;;;;;;;;;;21.20;99.90;;;;;;12547888;28;20059;-39
2022/10/28 10:16:54;;;;;;;;;;;21.40;99.90;;;;;;12531150;28;19936;-39
2022/10/28 10:22:55;;;;;;;;;;;21.60;99.90;;;;;;12541585;28;19931;-39
2022/10/28 10:28:58;;;;;;;;;;;21.80;99.90;;;;;;12556929;28;20010;-39
2022/10/28 10:35:14;;;;;;;;;;;22.00;99.90;;;;;;12545066;28;19932;-39
2022/10/28 10:41:31;;;;;;;;;;;22.10;99.90;;;;;;12551244;28;20018;-39
2022/10/28 10:47:33;;;;;;;;;;;22.30;99.90;;;;;;12542433;28;20428;-39
2022/10/28 10:53:36;;;;;;;;;;;22.40;99.90;;;;;;12548880;28;20314;-39
2022/10/28 10:59:38;;;;;;;;;;;22.50;99.90;;;;;;12547810;28;19924;-40
2022/10/28 11:05:46;;;;;;;;;;;22.60;99.90;;;;;;12546643;28;19928;-39
2022/10/28 11:12:00;;;;;;;;;;;22.50;99.90;;;;;;12533417;28;20062;-39
2022/10/28 11:18:15;;;;;;;;;;;22.40;99.90;;;;;;12534155;28;20431;-39
2022/10/28 11:24:26;;;;;;;;;;;22.10;99.90;;;;;;12549556;28;19936;-39
2022/10/28 11:30:35;;;;;;;;;;;22.20;99.90;;;;;;12541702;28;19932;-38
2022/10/28 11:36:46;;;;;;;;;;;22.10;99.90;;;;;;12533705;28;19929;-39
2022/10/28 11:42:54;;;;;;;;;;;22.00;99.90;;;;;;12549789;28;20408;-39
2022/10/28 11:49:20;;;;;;;;;;;22.20;99.90;;;;;;12553773;28;19924;-39
2022/10/28 11:55:32;;;;;;;;;;;22.20;99.90;;;;;;12556553;28;19940;-40
2022/10/28 12:01:44;;;;;;;;;;;22.50;99.90;;;;;;12560622;28;20285;-39
2022/10/28 12:07:53;;;;;;;;;;;22.60;99.90;;;;;;12561663;28;19925;-40
2022/10/28 12:14:12;;;;;;;;;;;22.70;99.90;;;;;;12555318;28;19933;-39
2022/10/28 12:20:14;;;;;;;;;;;22.90;99.90;;;;;;12558862;28;20331;-39
2022/10/28 12:26:17;;;;;;;;;;;23.00;99.90;;;;;;12550375;28;19925;-39
2022/10/28 12:32:23;;;;;;;;;;;23.00;99.90;;;;;;12546814;28;19924;-39
2022/10/28 12:38:29;;;;;;;;;;;22.80;99.90;;;;;;12559100;28;20021;-39
2022/10/28 12:44:31;;;;;;;;;;;22.60;99.90;;;;;;12561426;28;19935;-39
2022/10/28 12:50:38;;;;;;;;;;;22.50;99.90;;;;;;12558200;28;20382;-39
2022/10/28 12:56:47;;;;;;;;;;;22.40;99.90;;;;;;12559283;28;19925;-40
2022/10/28 13:02:53;;;;;;;;;;;22.40;99.90;;;;;;12567586;28;20328;-39
2022/10/28 13:09:21;;;;;;;;;;;22.40;99.90;;;;;;12553556;28;19932;-39
2022/10/28 13:15:35;;;;;;;;;;;22.40;99.90;;;;;;12555135;28;19928;-39
2022/10/28 13:21:37;;;;;;;;;;;22.30;99.90;;;;;;12548763;28;19933;-39
2022/10/28 13:27:39;;;;;;;;;;;22.20;99.90;;;;;;12545119;28;19982;-39
2022/10/28 13:33:57;;;;;;;;;;;22.30;99.90;;;;;;12561260;28;19967;-39
2022/10/28 13:39:59;;;;;;;;;;;22.30;99.90;;;;;;12539718;28;20066;-39
2022/10/28 13:46:01;;;;;;;;;;;22.40;99.90;;;;;;12549483;28;19928;-39
2022/10/28 13:52:06;;;;;;;;;;;22.30;99.90;;;;;;12557172;28;19928;-39
2022/10/28 13:58:19;;;;;;;;;;;22.30;99.90;;;;;;12545146;28;20399;-39
2022/10/28 14:04:40;;;;;;;;;;;22.30;99.90;;;;;;12548908;28;20041;-39
2022/10/28 14:10:57;;;;;;;;;;;22.30;99.90;;;;;;12550067;28;19970;-39
2022/10/28 14:16:59;;;;;;;;;;;22.20;99.90;;;;;;12538578;28;19929;-39
2022/10/28 14:23:20;;;;;;;;;;;22.20;99.90;;;;;;12560724;28;19936;-39
2022/10/28 14:29:26;;;;;;;;;;;22.10;99.90;;;;;;12547797;28;19963;-39
2022/10/28 14:35:46;;;;;;;;;;;22.00;99.90;;;;;;12546187;28;19985;-40
2022/10/28 14:41:54;;;;;;;;;;;21.90;99.90;;;;;;12541957;28;20331;-39
2022/10/28 14:48:22;;;;;;;;;;;21.70;99.90;;;;;;12548644;28;19925;-39
2022/10/28 14:54:32;;;;;;;;;;;21.60;99.90;;;;;;12551649;28;19939;-39
2022/10/28 15:00:44;;;;;;;;;;;21.50;99.90;;;;;;12544865;28;20288;-39
2022/10/28 15:06:49;;;;;;;;;;;21.30;99.90;;;;;;12532318;28;19925;-39
2022/10/28 15:12:52;;;;;;;;;;;21.30;99.90;;;;;;12550668;28;19931;-39
2022/10/28 15:18:54;;;;;;;;;;;21.10;99.90;;;;;;12553060;28;20292;-39
2022/10/28 15:24:58;;;;;;;;;;;21.20;99.90;;;;;;12543709;28;19928;-39
2022/10/28 15:30:59;;;;;;;;;;;21.30;99.90;;;;;;12542153;28;20376;-39
2022/10/28 15:37:01;;;;;;;;;;;21.30;99.90;;;;;;12541465;28;19929;-39
2022/10/28 15:43:04;;;;;;;;;;;21.30;99.90;;;;;;12537233;28;20327;-39
2022/10/28 15:49:26;;;;;;;;;;;21.30;99.90;;;;;;12539087;28;19925;-39
2022/10/28 15:55:29;;;;;;;;;;;21.20;99.90;;;;;;12543419;28;20027;-39
2022/10/28 16:01:48;;;;;;;;;;;21.20;99.90;;;;;;12537716;28;19979;-39
2022/10/28 16:07:50;;;;;;;;;;;21.00;99.90;;;;;;12544250;28;20368;-38
2022/10/28 16:13:51;;;;;;;;;;;20.90;99.90;;;;;;12535710;28;19925;-39
2022/10/28 16:20:13;;;;;;;;;;;20.70;99.90;;;;;;12548203;28;20269;-39
2022/10/28 16:26:19;;;;;;;;;;;20.50;99.90;;;;;;12551385;28;19924;-39
2022/10/28 16:32:32;;;;;;;;;;;20.50;99.90;;;;;;12548587;28;20304;-39
2022/10/28 16:38:36;;;;;;;;;;;20.60;99.90;;;;;;12558592;28;19954;-39
2022/10/28 16:44:38;;;;;;;;;;;20.60;99.90;;;;;;12529511;28;19928;-39
2022/10/28 16:50:42;;;;;;;;;;;20.70;99.90;;;;;;12550764;28;19986;-39
2022/10/28 16:56:44;;;;;;;;;;;20.80;99.90;;;;;;12563226;28;20413;-41
2022/10/28 17:02:49;;;;;;;;;;;20.90;99.90;;;;;;12557933;28;19932;-39
2022/10/28 17:08:51;;;;;;;;;;;20.90;99.90;;;;;;12553064;28;20376;-39
2022/10/28 17:15:09;;;;;;;;;;;20.90;99.90;;;;;;12546299;28;19925;-39
2022/10/28 17:21:11;;;;;;;;;;;20.90;99.90;;;;;;12557583;28;19928;-39
2022/10/28 17:27:13;;;;;;;;;;;21.00;99.90;;;;;;12546765;28;19925;-39
2022/10/28 17:33:14;;;;;;;;;;;21.00;99.90;;;;;;12545991;28;19932;-40
2022/10/28 17:39:16;;;;;;;;;;;20.80;99.90;;;;;;12552797;28;20293;-39
2022/10/28 17:45:25;;;;;;;;;;;20.60;99.90;;;;;;12545794;28;19981;-39
2022/10/28 17:51:27;;;;;;;;;;;20.40;99.90;;;;;;12560269;28;19939;-39
2022/10/28 17:57:29;;;;;;;;;;;20.10;99.90;;;;;;12560721;28;20034;-39
2022/10/28 18:03:33;;;;;;;;;;;20.00;99.90;;;;;;12545411;28;19925;-39
2022/10/28 18:09:40;;;;;;;;;;;20.00;99.90;;;;;;12551583;28;19939;-39
2022/10/28 18:15:42;;;;;;;;;;;20.00;99.90;;;;;;12540164;28;19932;-39
2022/10/28 18:21:44;;;;;;;;;;;19.80;99.90;;;;;;12545134;28;19940;-39
2022/10/28 18:27:45;;;;;;;;;;;19.70;99.90;;;;;;12551483;28;19924;-39
2022/10/28 18:33:48;;;;;;;;;;;19.60;99.90;;;;;;12549696;28;20162;-39
2022/10/28 18:39:49;;;;;;;;;;;19.50;99.90;;;;;;12550630;28;19931;-38
2022/10/28 18:45:51;;;;;;;;;;;19.50;99.90;;;;;;12547437;28;19925;-39
2022/10/28 18:51:53;;;;;;;;;;;19.40;99.90;;;;;;12543082;28;19932;-39
2022/10/28 18:57:54;;;;;;;;;;;19.30;99.90;;;;;;12552491;28;20296;-39
2022/10/28 19:03:57;;;;;;;;;;;19.20;99.90;;;;;;12559288;28;19932;-38
2022/10/28 19:09:59;;;;;;;;;;;19.00;99.90;;;;;;12539336;28;19948;-38
2022/10/28 19:16:01;;;;;;;;;;;19.00;99.90;;;;;;12557406;28;20305;-39
2022/10/28 19:22:03;;;;;;;;;;;18.90;99.90;;;;;;12550064;28;20296;-39
2022/10/28 19:28:05;;;;;;;;;;;18.80;99.90;;;;;;12540114;28;20440;-39
2022/10/28 19:34:09;;;;;;;;;;;18.90;99.90;;;;;;12546717;28;19925;-39
2022/10/28 19:40:11;;;;;;;;;;;18.80;99.90;;;;;;12538192;28;19932;-40
2022/10/28 19:46:14;;;;;;;;;;;18.70;99.90;;;;;;12554195;28;19925;-38
2022/10/28 19:52:16;;;;;;;;;;;18.60;99.90;;;;;;12554098;28;19924;-39
2022/10/28 19:58:17;;;;;;;;;;;18.60;99.90;;;;;;12552261;28;20385;-38
2022/10/28 20:04:20;;;;;;;;;;;18.60;99.90;;;;;;12539967;28;19951;-39
2022/10/28 20:10:22;;;;;;;;;;;18.50;99.90;;;;;;12554629;28;19986;-39
2022/10/28 20:16:24;;;;;;;;;;;18.40;99.90;;;;;;12555474;28;19928;-39
2022/10/28 20:22:25;;;;;;;;;;;18.30;99.90;;;;;;12558752;28;19981;-39
2022/10/28 20:28:27;;;;;;;;;;;18.20;99.90;;;;;;12542897;28;20015;-39
2022/10/28 20:34:29;;;;;;;;;;;18.20;99.90;;;;;;12547529;28;19925;-39
2022/10/28 20:40:32;;;;;;;;;;;18.20;99.90;;;;;;12549118;28;19931;-38
2022/10/28 20:46:33;;;;;;;;;;;18.10;99.90;;;;;;12553113;28;19924;-39
2022/10/28 20:52:35;;;;;;;;;;;18.10;99.90;;;;;;12558056;28;19931;-39
2022/10/28 20:58:37;;;;;;;;;;;17.90;99.90;;;;;;12553078;28;19924;-38
2022/10/28 21:04:38;;;;;;;;;;;17.90;99.90;;;;;;12558106;28;19933;-39
2022/10/28 21:10:40;;;;;;;;;;;17.90;99.90;;;;;;12558757;28;19932;-38
2022/10/28 21:16:42;;;;;;;;;;;17.80;99.90;;;;;;12562992;28;19959;-39
2022/10/28 21:22:43;;;;;;;;;;;17.70;99.90;;;;;;12552087;28;19929;-39
2022/10/28 21:28:50;;;;;;;;;;;17.50;99.90;;;;;;12560848;28;19931;-40
2022/10/28 21:34:52;;;;;;;;;;;17.50;99.90;;;;;;12554750;28;19973;-39
2022/10/28 21:40:58;;;;;;;;;;;17.40;99.90;;;;;;12557107;28;19951;-39
2022/10/28 21:47:00;;;;;;;;;;;17.40;99.90;;;;;;12536436;28;19924;-39
2022/10/28 21:53:02;;;;;;;;;;;17.40;99.90;;;;;;12562918;28;20030;-39
2022/10/28 21:59:04;;;;;;;;;;;17.20;99.90;;;;;;12554440;28;19925;-39
2022/10/28 22:05:06;;;;;;;;;;;17.10;99.90;;;;;;12550976;28;19940;-38
2022/10/28 22:11:12;;;;;;;;;;;17.10;99.90;;;;;;12548214;28;20338;-39
2022/10/28 22:17:14;;;;;;;;;;;17.10;99.90;;;;;;12543812;28;19925;-40
2022/10/28 22:23:16;;;;;;;;;;;17.00;99.90;;;;;;12547060;28;19928;-39
2022/10/28 22:29:17;;;;;;;;;;;17.00;99.90;;;;;;12554805;28;20369;-38
2022/10/28 22:35:19;;;;;;;;;;;17.00;99.90;;;;;;12542266;28;20296;-39
2022/10/28 22:41:28;;;;;;;;;;;17.10;99.90;;;;;;12560185;28;19925;-39
2022/10/28 22:47:29;;;;;;;;;;;17.20;99.90;;;;;;12549513;28;19931;-38
2022/10/28 22:53:31;;;;;;;;;;;17.30;99.90;;;;;;12554383;28;19931;-39
2022/10/28 22:59:33;;;;;;;;;;;17.30;99.90;;;;;;12543351;28;20013;-39
2022/10/28 23:05:35;;;;;;;;;;;17.40;99.90;;;;;;12556113;28;19932;-38
2022/10/28 23:11:36;;;;;;;;;;;17.40;99.90;;;;;;12549615;28;19925;-39
2022/10/28 23:17:38;;;;;;;;;;;17.40;99.90;;;;;;12543817;28;19947;-39
2022/10/28 23:23:40;;;;;;;;;;;17.30;99.90;;;;;;12547788;28;20316;-39
2022/10/28 23:29:42;;;;;;;;;;;17.20;99.90;;;;;;12541352;28;19933;-39
2022/10/28 23:35:43;;;;;;;;;;;17.00;99.90;;;;;;12551619;28;19924;-38
2022/10/28 23:41:46;;;;;;;;;;;16.90;99.90;;;;;;12546050;28;20399;-38
2022/10/28 23:47:48;;;;;;;;;;;16.90;99.90;;;;;;12563964;28;19928;-39
2022/10/28 23:53:49;;;;;;;;;;;16.90;99.90;;;;;;12568467;28;19928;-39
2022/10/28 23:59:52;;;;;;;;;;;16.90;99.90;;;;;;12557245;28;19936;-39
